createdAt,value
2018-08-14T00:00:47.699Z,1.80
2018-08-14T00:03:19.324Z,1.93
2018-08-14T00:05:50.672Z,1.70
2018-08-14T00:08:21.206Z,2.77
2018-08-14T00:10:51.658Z,1.80
2018-08-14T00:13:22.243Z,1.57
2018-08-14T00:15:52.899Z,1.77
2018-08-14T00:18:23.438Z,1.87
2018-08-14T00:20:53.915Z,1.93
2018-08-14T00:23:24.177Z,1.60
2018-08-14T00:25:54.719Z,1.80
2018-08-14T00:28:25.103Z,1.60
2018-08-14T00:30:55.406Z,1.40
2018-08-14T00:33:25.858Z,1.77
2018-08-14T00:35:56.422Z,1.60
2018-08-14T00:38:26.954Z,1.70
2018-08-14T00:40:57.371Z,2.23
2018-08-14T00:43:27.897Z,2.27
2018-08-14T00:45:58.509Z,1.67
2018-08-14T00:48:28.907Z,1.67
2018-08-14T00:50:59.393Z,1.47
2018-08-14T00:53:29.673Z,1.77
2018-08-14T00:56:00.227Z,1.70
2018-08-14T00:58:30.703Z,1.90
2018-08-14T01:01:01.148Z,1.80
2018-08-14T01:03:31.642Z,1.80
2018-08-14T01:06:02.140Z,1.90
2018-08-14T01:08:32.458Z,2.03
2018-08-14T01:11:02.998Z,2.20
2018-08-14T01:13:33.383Z,1.63
2018-08-14T01:16:03.886Z,1.90
2018-08-14T01:18:34.417Z,1.50
2018-08-14T01:21:05.015Z,1.50
2018-08-14T01:23:35.528Z,1.97
2018-08-14T01:26:06.034Z,1.50
2018-08-14T01:28:36.599Z,1.70
2018-08-14T01:31:07.058Z,1.90
2018-08-14T01:33:37.598Z,1.90
2018-08-14T01:36:07.995Z,1.80
2018-08-14T01:38:38.407Z,2.00
2018-08-14T01:41:08.987Z,2.03
2018-08-14T01:43:39.518Z,1.97
2018-08-14T01:46:09.886Z,2.20
2018-08-14T01:48:40.485Z,1.83
2018-08-14T01:51:10.862Z,1.97
2018-08-14T01:53:41.462Z,1.93
2018-08-14T01:56:11.957Z,1.90
2018-08-14T01:58:42.428Z,2.10
2018-08-14T02:01:12.832Z,2.07
2018-08-14T02:03:43.398Z,2.07
2018-08-14T02:06:14.036Z,2.07
2018-08-14T02:08:44.900Z,1.90
2018-08-14T02:11:15.378Z,1.70
2018-08-14T02:13:46.124Z,1.70
2018-08-14T02:16:16.579Z,1.90
2018-08-14T02:18:47.248Z,2.10
2018-08-14T02:21:17.706Z,1.90
2018-08-14T02:23:48.271Z,2.10
2018-08-14T02:26:18.799Z,2.20
2018-08-14T02:28:49.408Z,1.97
2018-08-14T02:31:20.007Z,2.17
2018-08-14T02:33:50.716Z,2.40
2018-08-14T02:36:21.093Z,2.27
2018-08-14T02:38:51.714Z,2.27
2018-08-14T02:41:22.160Z,2.10
2018-08-14T02:43:52.547Z,2.30
2018-08-14T02:46:23.120Z,3.47
2018-08-14T02:48:54.171Z,2.20
2018-08-14T02:51:24.563Z,2.50
2018-08-14T02:53:54.966Z,2.17
2018-08-14T02:56:25.751Z,2.40
2018-08-14T02:58:56.162Z,2.50
2018-08-14T03:01:26.737Z,2.20
2018-08-14T03:03:57.202Z,2.60
2018-08-14T03:06:27.710Z,2.20
2018-08-14T03:08:58.052Z,2.30
2018-08-14T03:11:28.486Z,2.20
2018-08-14T03:13:58.996Z,2.33
2018-08-14T03:16:29.581Z,2.60
2018-08-14T03:18:59.885Z,2.13
2018-08-14T03:21:30.684Z,2.70
2018-08-14T03:24:01.263Z,2.40
2018-08-14T03:26:31.946Z,2.40
2018-08-14T03:29:02.169Z,1.90
2018-08-14T03:31:32.889Z,2.20
2018-08-14T03:34:03.304Z,2.13
2018-08-14T03:36:33.707Z,2.40
2018-08-14T03:39:05.132Z,2.23
2018-08-14T03:41:35.484Z,2.30
2018-08-14T03:44:06.007Z,1.70
2018-08-14T03:46:36.484Z,2.37
2018-08-14T03:49:06.987Z,1.90
2018-08-14T03:51:37.678Z,1.80
2018-08-14T03:54:08.062Z,2.00
2018-08-14T03:56:38.513Z,1.60
2018-08-14T03:59:08.975Z,2.77
2018-08-14T04:01:39.323Z,1.97
2018-08-14T04:04:09.730Z,2.27
2018-08-14T04:06:40.306Z,1.87
2018-08-14T04:09:12.608Z,2.30
2018-08-14T04:11:43.070Z,1.60
2018-08-14T04:14:13.642Z,2.10
2018-08-14T04:16:46.806Z,2.20
2018-08-14T04:19:17.632Z,2.33
2018-08-14T04:21:48.083Z,2.63
2018-08-14T04:24:18.558Z,2.10
2018-08-14T04:26:49.118Z,2.17
2018-08-14T04:29:19.514Z,2.07
2018-08-14T04:31:50.132Z,1.90
2018-08-14T04:34:20.405Z,1.93
2018-08-14T04:36:50.938Z,2.10
2018-08-14T04:39:21.562Z,2.00
2018-08-14T04:41:51.930Z,1.90
2018-08-14T04:44:22.370Z,2.37
2018-08-14T04:46:52.868Z,2.70
2018-08-14T04:49:23.270Z,2.60
2018-08-14T04:51:53.680Z,1.67
2018-08-14T04:54:24.103Z,1.70
2018-08-14T04:56:54.618Z,2.23
2018-08-14T04:59:25.162Z,2.07
2018-08-14T05:01:55.727Z,2.03
2018-08-14T05:04:26.187Z,2.10
2018-08-14T05:06:56.650Z,2.03
2018-08-14T05:09:27.127Z,1.73
2018-08-14T05:11:57.446Z,1.97
2018-08-14T05:14:27.768Z,7.43
2018-08-14T05:16:58.096Z,5.90
2018-08-14T05:19:28.377Z,4.17
2018-08-14T05:21:58.885Z,2.00
2018-08-14T05:24:29.399Z,1.80
2018-08-14T05:26:59.971Z,1.83
2018-08-14T05:29:30.439Z,2.13
2018-08-14T05:32:00.939Z,2.13
2018-08-14T05:34:31.266Z,2.30
2018-08-14T05:37:01.886Z,2.00
2018-08-14T05:39:32.302Z,2.00
2018-08-14T05:42:02.720Z,2.20
2018-08-14T05:44:33.006Z,2.23
2018-08-14T05:47:03.602Z,2.30
2018-08-14T05:49:34.211Z,2.60
2018-08-14T05:52:05.069Z,2.13
2018-08-14T05:54:35.437Z,2.03
2018-08-14T05:57:06.264Z,2.20
2018-08-14T05:59:36.721Z,2.33
2018-08-14T06:02:07.130Z,2.40
2018-08-14T06:04:37.638Z,2.17
2018-08-14T06:07:09.070Z,2.00
2018-08-14T06:09:39.423Z,2.30
2018-08-14T06:12:10.096Z,2.23
2018-08-14T06:14:40.422Z,1.80
2018-08-14T06:17:10.670Z,1.80
2018-08-14T06:19:41.169Z,1.60
2018-08-14T06:22:11.679Z,2.00
2018-08-14T06:24:42.124Z,2.00
2018-08-14T06:27:12.466Z,1.77
2018-08-14T06:29:42.714Z,1.90
2018-08-14T06:32:13.543Z,1.77
2018-08-14T06:34:43.870Z,2.17
2018-08-14T06:37:14.375Z,1.97
2018-08-14T06:39:44.934Z,1.77
2018-08-14T06:42:15.650Z,1.70
2018-08-14T06:44:46.239Z,2.00
2018-08-14T06:47:16.966Z,1.77
2018-08-14T06:49:47.377Z,1.50
2018-08-14T06:52:17.930Z,1.80
2018-08-14T06:54:48.555Z,1.53
2018-08-14T06:57:19.166Z,1.60
2018-08-14T06:59:49.492Z,2.00
2018-08-14T07:02:19.879Z,1.83
2018-08-14T07:04:50.334Z,1.73
2018-08-14T07:07:20.752Z,1.50
2018-08-14T07:09:51.415Z,1.87
2018-08-14T07:12:21.914Z,1.50
2018-08-14T07:14:52.454Z,1.40
2018-08-14T07:17:22.742Z,1.50
2018-08-14T07:19:53.169Z,1.60
2018-08-14T07:22:23.608Z,2.43
2018-08-14T07:24:54.129Z,1.40
2018-08-14T07:27:24.531Z,1.37
2018-08-14T07:29:54.924Z,1.30
2018-08-14T07:32:25.333Z,1.20
2018-08-14T07:34:55.622Z,1.40
2018-08-14T07:37:26.007Z,1.30
2018-08-14T07:39:56.322Z,1.20
2018-08-14T07:42:26.907Z,1.00
2018-08-14T07:44:57.273Z,1.20
2018-08-14T07:47:27.594Z,1.10
2018-08-14T07:49:57.903Z,0.90
2018-08-14T07:52:28.434Z,1.13
2018-08-14T07:54:59.022Z,1.13
2018-08-14T07:57:29.606Z,1.27
2018-08-14T07:59:59.995Z,1.17
2018-08-14T08:02:30.470Z,0.90
2018-08-14T08:05:01.054Z,0.90
2018-08-14T08:07:31.500Z,0.78
2018-08-14T08:10:01.923Z,1.12
2018-08-14T08:12:32.304Z,1.20
2018-08-14T08:15:02.666Z,1.07
2018-08-14T08:17:33.227Z,1.10
2018-08-14T08:20:03.611Z,1.15
2018-08-14T08:22:34.158Z,1.00
2018-08-14T08:25:05.286Z,0.85
2018-08-14T08:27:35.716Z,1.30
2018-08-14T08:30:07.254Z,1.70
2018-08-14T08:32:37.727Z,0.90
2018-08-14T08:35:08.100Z,1.10
2018-08-14T08:37:38.431Z,1.10
2018-08-14T08:40:08.880Z,1.10
2018-08-14T08:42:39.492Z,1.00
2018-08-14T08:45:10.522Z,1.00
2018-08-14T08:47:41.149Z,1.30
2018-08-14T08:50:14.108Z,0.90
2018-08-14T08:52:45.303Z,0.88
2018-08-14T08:55:18.890Z,1.17
2018-08-14T08:57:49.375Z,0.78
2018-08-14T09:00:19.762Z,1.10
2018-08-14T09:02:50.087Z,1.02
2018-08-14T09:05:20.651Z,1.00
2018-08-14T09:07:51.371Z,1.10
2018-08-14T09:10:21.804Z,0.93
2018-08-14T09:12:52.231Z,1.00
2018-08-14T09:15:22.623Z,1.02
2018-08-14T09:17:52.938Z,0.90
2018-08-14T09:20:23.571Z,1.10
2018-08-14T09:22:54.203Z,1.20
2018-08-14T09:25:24.860Z,0.90
2018-08-14T09:27:55.443Z,1.65
2018-08-14T09:30:25.882Z,2.27
2018-08-14T09:32:56.410Z,1.20
2018-08-14T09:35:26.736Z,1.00
2018-08-14T09:37:57.113Z,0.90
2018-08-14T09:40:27.463Z,0.82
2018-08-14T09:42:57.828Z,0.78
2018-08-14T09:45:28.318Z,0.65
2018-08-14T09:47:58.778Z,0.60
2018-08-14T09:50:29.067Z,0.95
2018-08-14T09:52:59.418Z,1.00
2018-08-14T09:55:29.977Z,0.93
2018-08-14T09:58:00.335Z,0.85
2018-08-14T10:00:36.135Z,0.90
2018-08-14T10:03:20.232Z,0.90
2018-08-14T10:05:55.764Z,1.00
2018-08-14T10:08:26.268Z,0.80
2018-08-14T10:10:56.611Z,0.90
2018-08-14T10:13:27.030Z,0.93
2018-08-14T10:15:57.600Z,0.80
2018-08-14T10:18:28.369Z,0.82
2018-08-14T10:20:58.686Z,0.70
2018-08-14T10:23:30.944Z,1.05
2018-08-14T10:26:01.487Z,0.80
2018-08-14T10:28:32.207Z,0.80
2018-08-14T10:31:02.550Z,0.80
2018-08-14T10:33:32.950Z,0.72
2018-08-14T10:36:03.618Z,0.70
2018-08-14T10:38:34.035Z,0.98
2018-08-14T10:41:04.446Z,0.98
2018-08-14T10:43:34.830Z,0.60
2018-08-14T10:46:05.365Z,0.70
2018-08-14T10:48:35.792Z,0.85
2018-08-14T10:51:06.271Z,0.40
2018-08-14T10:53:36.700Z,1.15
2018-08-14T10:56:07.179Z,1.30
2018-08-14T10:58:37.735Z,0.98
2018-08-14T11:01:08.083Z,0.90
2018-08-14T11:03:38.608Z,1.00
2018-08-14T11:06:09.084Z,1.35
2018-08-14T11:08:39.416Z,1.27
2018-08-14T11:11:13.993Z,1.20
2018-08-14T11:13:44.542Z,1.20
2018-08-14T11:16:14.996Z,1.10
2018-08-14T11:18:45.534Z,1.20
2018-08-14T11:21:16.023Z,1.50
2018-08-14T11:23:46.459Z,1.30
2018-08-14T11:26:16.955Z,1.20
2018-08-14T11:28:47.687Z,1.60
2018-08-14T11:31:18.114Z,1.37
2018-08-14T11:33:48.696Z,1.30
2018-08-14T11:36:19.074Z,1.30
2018-08-14T11:38:49.578Z,1.20
2018-08-14T11:41:19.917Z,1.40
2018-08-14T11:43:50.553Z,1.40
2018-08-14T11:46:21.119Z,1.33
2018-08-14T11:48:51.651Z,1.30
2018-08-14T11:51:22.098Z,1.40
2018-08-14T11:53:52.479Z,1.40
2018-08-14T11:56:22.830Z,1.20
2018-08-14T11:58:53.530Z,1.27
2018-08-14T12:01:23.858Z,1.20
2018-08-14T12:03:54.236Z,1.40
2018-08-14T12:06:24.649Z,1.00
2018-08-14T12:08:54.931Z,1.07
2018-08-14T12:11:25.262Z,1.00
2018-08-14T12:13:55.611Z,1.30
2018-08-14T12:16:26.045Z,1.10
2018-08-14T12:18:56.493Z,0.83
2018-08-14T12:21:27.838Z,1.20
2018-08-14T12:23:58.359Z,0.97
2018-08-14T12:26:28.845Z,0.90
2018-08-14T12:28:59.139Z,0.80
2018-08-14T12:31:29.418Z,1.00
2018-08-14T12:33:59.789Z,1.07
2018-08-14T12:36:30.504Z,0.85
2018-08-14T12:39:00.954Z,0.78
2018-08-14T12:41:31.322Z,0.82
2018-08-14T12:44:01.759Z,0.60
2018-08-14T12:46:32.094Z,0.80
2018-08-14T12:49:02.434Z,0.40
2018-08-14T12:51:32.776Z,1.12
2018-08-14T12:54:03.112Z,0.60
2018-08-14T12:56:33.638Z,0.60
2018-08-14T12:59:04.065Z,0.85
2018-08-14T13:01:34.526Z,0.60
2018-08-14T13:04:04.978Z,0.70
2018-08-14T13:06:35.587Z,0.60
2018-08-14T13:09:08.842Z,0.98
2018-08-14T13:11:40.019Z,0.68
2018-08-14T13:14:10.683Z,0.90
2018-08-14T13:16:41.236Z,0.70
2018-08-14T13:19:11.986Z,0.60
2018-08-14T13:21:43.614Z,0.88
2018-08-14T13:24:14.310Z,0.85
2018-08-14T13:26:44.613Z,0.80
2018-08-14T13:29:15.078Z,0.70
2018-08-14T13:31:45.588Z,1.00
2018-08-14T13:34:16.152Z,0.90
2018-08-14T13:36:46.662Z,0.85
2018-08-14T13:39:17.230Z,0.80
2018-08-14T13:41:47.822Z,0.65
2018-08-14T13:44:18.463Z,0.80
2018-08-14T13:46:49.022Z,0.68
2018-08-14T13:49:19.504Z,0.70
2018-08-14T13:51:50.323Z,0.45
2018-08-14T13:54:21.016Z,0.47
2018-08-14T13:56:51.677Z,0.57
2018-08-14T13:59:22.230Z,0.53
2018-08-14T14:01:52.562Z,0.53
2018-08-14T14:04:23.031Z,0.60
2018-08-14T14:06:53.454Z,0.70
2018-08-14T14:09:23.794Z,0.60
2018-08-14T14:11:54.192Z,0.78
2018-08-14T14:14:24.506Z,0.55
2018-08-14T14:16:54.911Z,0.88
2018-08-14T14:19:25.452Z,0.72
2018-08-14T14:21:55.870Z,0.70
2018-08-14T14:24:26.281Z,0.70
2018-08-14T14:26:56.832Z,1.10
2018-08-14T14:29:27.428Z,0.90
2018-08-14T14:31:57.902Z,0.82
2018-08-14T14:34:28.388Z,0.80
2018-08-14T14:36:58.745Z,0.88
2018-08-14T14:39:29.244Z,1.42
2018-08-14T14:41:59.739Z,0.65
2018-08-14T14:44:30.178Z,0.90
2018-08-14T14:47:00.572Z,0.78
2018-08-14T14:49:30.876Z,0.82
2018-08-14T14:52:01.450Z,0.80
2018-08-14T14:54:31.732Z,0.70
2018-08-14T14:57:02.521Z,1.00
2018-08-14T14:59:33.046Z,0.70
2018-08-14T15:02:03.446Z,0.90
2018-08-14T15:04:33.702Z,0.68
2018-08-14T15:07:04.406Z,0.60
2018-08-14T15:09:34.970Z,0.62
2018-08-14T15:12:05.396Z,1.02
2018-08-14T15:14:35.806Z,0.57
2018-08-14T15:17:06.129Z,0.70
2018-08-14T15:19:36.436Z,0.65
2018-08-14T15:22:07.166Z,0.95
2018-08-14T15:24:37.523Z,0.50
2018-08-14T15:27:08.063Z,0.40
2018-08-14T15:29:38.486Z,0.68
2018-08-14T15:32:08.941Z,0.90
2018-08-14T15:34:39.250Z,0.70
2018-08-14T15:37:10.893Z,0.80
2018-08-14T15:39:41.299Z,0.62
2018-08-14T15:42:11.574Z,0.72
2018-08-14T15:44:42.040Z,0.70
2018-08-14T15:47:12.307Z,0.82
2018-08-14T15:49:42.885Z,1.20
2018-08-14T15:52:13.459Z,0.80
2018-08-14T15:54:44.056Z,0.68
2018-08-14T15:57:14.425Z,0.65
2018-08-14T15:59:44.698Z,0.37
2018-08-14T16:02:15.234Z,0.57
2018-08-14T16:04:45.614Z,0.50
2018-08-14T16:07:16.072Z,0.80
2018-08-14T16:09:46.369Z,0.45
2018-08-14T16:12:16.887Z,0.70
2018-08-14T16:14:47.522Z,0.60
2018-08-14T16:17:18.162Z,0.68
2018-08-14T16:19:49.134Z,0.55
2018-08-14T16:22:19.726Z,0.40
2018-08-14T16:24:50.341Z,0.60
2018-08-14T16:27:22.629Z,0.60
2018-08-14T16:29:53.126Z,1.05
2018-08-14T16:32:23.717Z,0.70
2018-08-14T16:34:54.159Z,0.57
2018-08-14T16:37:24.887Z,0.90
2018-08-14T16:39:55.430Z,0.70
2018-08-14T16:42:26.098Z,0.80
2018-08-14T16:44:56.592Z,0.70
2018-08-14T16:47:27.052Z,0.72
2018-08-14T16:49:57.620Z,1.10
2018-08-14T16:52:28.167Z,0.98
2018-08-14T16:54:58.829Z,1.00
2018-08-14T16:57:29.133Z,1.02
2018-08-14T16:59:59.549Z,1.17
2018-08-14T17:02:30.043Z,0.83
2018-08-14T17:05:00.354Z,1.10
2018-08-14T17:07:30.743Z,1.30
2018-08-14T17:10:01.335Z,1.03
2018-08-14T17:12:32.935Z,1.10
2018-08-14T17:15:03.490Z,1.20
2018-08-14T17:17:33.914Z,1.13
2018-08-14T17:20:01.940Z,1.43
2018-08-14T17:22:32.526Z,1.37
2018-08-14T17:25:03.024Z,1.20
2018-08-14T17:27:33.615Z,1.03
2018-08-14T17:30:03.998Z,1.57
2018-08-14T17:32:34.419Z,1.03
2018-08-14T17:35:04.894Z,1.53
2018-08-14T17:37:35.170Z,1.00
2018-08-14T17:40:07.311Z,1.20
2018-08-14T17:42:37.735Z,1.30
2018-08-14T17:45:11.093Z,1.13
2018-08-14T17:47:41.543Z,1.33
2018-08-14T17:50:12.128Z,1.00
2018-08-14T17:52:42.699Z,1.10
2018-08-14T17:55:13.088Z,1.20
2018-08-14T17:57:43.599Z,1.33
2018-08-14T18:00:18.843Z,1.23
2018-08-14T18:02:51.440Z,1.80
2018-08-14T18:05:21.840Z,1.07
2018-08-14T18:07:52.435Z,1.30
2018-08-14T18:10:23.840Z,1.23
2018-08-14T18:12:54.295Z,1.17
2018-08-14T18:15:24.885Z,1.50
2018-08-14T18:17:55.410Z,1.37
2018-08-14T18:20:26.256Z,1.20
2018-08-14T18:22:56.787Z,3.80
2018-08-14T18:25:27.287Z,2.33
2018-08-14T18:27:58.065Z,2.00
2018-08-14T18:30:28.530Z,1.70
2018-08-14T18:32:58.903Z,1.40
2018-08-14T18:35:29.377Z,1.17
2018-08-14T18:38:00.147Z,1.50
2018-08-14T18:40:30.538Z,6.13
2018-08-14T18:43:01.694Z,2.13
2018-08-14T18:45:32.223Z,2.10
2018-08-14T18:48:02.973Z,1.20
2018-08-14T18:50:33.376Z,1.63
2018-08-14T18:53:04.164Z,1.67
2018-08-14T18:55:34.678Z,5.70
2018-08-14T18:58:05.290Z,3.40
2018-08-14T19:00:35.637Z,1.30
2018-08-14T19:03:06.454Z,2.37
2018-08-14T19:05:36.682Z,3.00
2018-08-14T19:08:07.058Z,3.00
2018-08-14T19:10:37.511Z,1.20
2018-08-14T19:13:08.012Z,1.40
2018-08-14T19:15:39.270Z,1.10
2018-08-14T19:18:11.422Z,0.93
2018-08-14T19:20:41.861Z,1.20
2018-08-14T19:23:12.238Z,1.43
2018-08-14T19:25:42.794Z,1.17
2018-08-14T19:28:13.182Z,1.17
2018-08-14T19:30:43.806Z,1.20
2018-08-14T19:33:14.330Z,1.70
2018-08-14T19:35:45.205Z,1.13
2018-08-14T19:38:16.169Z,1.30
2018-08-14T19:40:47.054Z,1.40
2018-08-14T19:43:17.795Z,1.10
2018-08-14T19:45:48.314Z,1.20
2018-08-14T19:48:18.802Z,1.10
2018-08-14T19:50:49.383Z,1.40
2018-08-14T19:53:20.262Z,1.10
2018-08-14T19:55:50.635Z,1.00
2018-08-14T19:58:21.130Z,1.23
2018-08-14T20:00:51.650Z,1.60
2018-08-14T20:03:22.634Z,5.00
2018-08-14T20:05:53.107Z,4.70
2018-08-14T20:08:23.619Z,1.50
2018-08-14T20:10:54.187Z,1.60
2018-08-14T20:13:24.557Z,1.23
2018-08-14T20:16:00.145Z,1.70
2018-08-14T20:18:30.671Z,1.13
2018-08-14T20:21:01.179Z,1.40
2018-08-14T20:23:31.653Z,1.30
2018-08-14T20:26:02.806Z,1.23
2018-08-14T20:28:34.052Z,1.30
2018-08-14T20:31:04.686Z,1.30
2018-08-14T20:33:34.931Z,1.20
2018-08-14T20:36:05.493Z,1.60
2018-08-14T20:38:35.891Z,1.60
2018-08-14T20:41:06.518Z,1.20
2018-08-14T20:43:37.054Z,1.43
2018-08-14T20:46:07.862Z,1.40
2018-08-14T20:48:38.465Z,2.20
2018-08-14T20:51:08.966Z,2.50
2018-08-14T20:53:39.534Z,3.90
2018-08-14T20:56:10.025Z,2.00
2018-08-14T20:58:40.382Z,2.20
2018-08-14T21:01:10.818Z,1.73
2018-08-14T21:03:41.307Z,2.20
2018-08-14T21:06:11.658Z,2.33
2018-08-14T21:08:42.134Z,1.50
2018-08-14T21:11:12.512Z,1.53
2018-08-14T21:13:43.006Z,1.60
2018-08-14T21:16:18.250Z,3.60
2018-08-14T21:18:48.702Z,2.60
2018-08-14T21:21:19.326Z,1.60
2018-08-14T21:23:50.028Z,1.70
2018-08-14T21:26:20.675Z,1.67
2018-08-14T21:28:51.278Z,1.80
2018-08-14T21:31:21.751Z,2.00
2018-08-14T21:33:52.154Z,1.73
2018-08-14T21:36:22.636Z,1.40
2018-08-14T21:38:53.010Z,1.30
2018-08-14T21:41:23.560Z,1.40
2018-08-14T21:43:54.099Z,1.73
2018-08-14T21:46:24.419Z,1.80
2018-08-14T21:48:54.887Z,1.50
2018-08-14T21:51:25.344Z,1.53
2018-08-14T21:53:55.665Z,1.60
2018-08-14T21:56:26.199Z,1.63
2018-08-14T21:58:56.665Z,1.60
2018-08-14T22:01:27.068Z,1.50
2018-08-14T22:03:57.418Z,1.90
2018-08-14T22:06:28.120Z,1.60
2018-08-14T22:08:58.511Z,1.80
2018-08-14T22:11:28.834Z,1.67
2018-08-14T22:13:59.309Z,1.70
2018-08-14T22:16:29.732Z,1.60
2018-08-14T22:19:00.139Z,2.00
2018-08-14T22:21:30.571Z,1.80
2018-08-14T22:24:00.982Z,1.63
2018-08-14T22:26:31.665Z,1.73
2018-08-14T22:29:02.082Z,1.50
2018-08-14T22:31:32.546Z,1.57
2018-08-14T22:34:03.007Z,1.60
2018-08-14T22:36:33.380Z,1.60
2018-08-14T22:39:04.171Z,1.60
2018-08-14T22:41:34.788Z,2.27
2018-08-14T22:44:05.563Z,1.60
2018-08-14T22:46:36.072Z,1.70
2018-08-14T22:49:06.560Z,1.53
2018-08-14T22:51:37.200Z,1.90
2018-08-14T22:54:07.749Z,2.20
2018-08-14T22:56:38.310Z,1.63
2018-08-14T22:59:08.629Z,2.00
2018-08-14T23:01:39.204Z,1.60
2018-08-14T23:04:09.495Z,1.50
2018-08-14T23:06:39.959Z,1.40
2018-08-14T23:09:10.468Z,1.47
2018-08-14T23:11:40.933Z,1.60
2018-08-14T23:14:11.491Z,2.10
2018-08-14T23:16:41.892Z,1.90
2018-08-14T23:19:12.481Z,1.80
2018-08-14T23:21:43.040Z,1.20
2018-08-14T23:24:13.684Z,1.80
2018-08-14T23:26:44.054Z,1.60
2018-08-14T23:29:14.593Z,1.70
2018-08-14T23:31:44.970Z,1.80
2018-08-14T23:34:15.534Z,1.50
2018-08-14T23:36:45.885Z,2.03
2018-08-14T23:39:16.468Z,2.07
2018-08-14T23:41:46.812Z,1.67
2018-08-14T23:44:17.282Z,1.67
2018-08-14T23:46:47.570Z,1.67
2018-08-14T23:49:18.181Z,1.83
2018-08-14T23:51:48.821Z,2.10
2018-08-14T23:54:19.342Z,1.57
2018-08-14T23:56:50.122Z,1.67
2018-08-14T23:59:20.764Z,1.80
